Time;durP1;ratioP1;P1;durP2;ratioP2;P2;SDS_P1;SDS_P2;PMS_P1;PMS_P2;Temp;Humidity;BMP_temperature;BMP_pressure;BME280_temperature;BME280_humidity;BME280_pressure;Samples;Min_cycle;Max_cycle;Signal;HPM_P1;HPM_P2
2020/12/21 00:00:18;;;;;;;2.78;2.22;;;11.40;80.30;;;;;;5144008;27;20023;-45
2020/12/21 00:02:47;;;;;;;3.15;2.70;;;11.40;80.20;;;;;;5117970;27;20043;-45
2020/12/21 00:05:14;;;;;;;3.05;2.60;;;11.40;80.10;;;;;;5144554;27;20027;-45
2020/12/21 00:07:40;;;;;;;3.53;2.63;;;11.40;80.20;;;;;;5126977;27;20027;-45
2020/12/21 00:10:06;;;;;;;2.83;2.45;;;11.40;80.20;;;;;;5123508;28;20049;-45
2020/12/21 00:12:32;;;;;;;2.50;2.17;;;11.40;80.40;;;;;;5123588;28;20055;-45
2020/12/21 00:14:59;;;;;;;2.92;2.63;;;11.40;80.30;;;;;;5123584;28;20047;-45
2020/12/21 00:17:25;;;;;;;2.58;2.35;;;11.40;80.30;;;;;;5123636;28;20122;-45
2020/12/21 00:19:52;;;;;;;3.10;2.70;;;11.40;80.40;;;;;;5110702;28;20073;-45
2020/12/21 00:22:18;;;;;;;3.45;2.60;;;11.40;80.40;;;;;;5102977;28;20035;-45
2020/12/21 00:24:45;;;;;;;2.63;2.40;;;11.40;80.30;;;;;;5103050;28;20084;-46
2020/12/21 00:27:11;;;;;;;3.33;2.50;;;11.30;81.10;;;;;;5103127;28;20028;-45
2020/12/21 00:29:37;;;;;;;3.30;2.72;;;11.30;80.50;;;;;;5102982;28;20039;-45
2020/12/21 00:32:03;;;;;;;3.40;2.67;;;11.30;80.50;;;;;;5101970;28;20036;-45
2020/12/21 00:34:29;;;;;;;3.35;2.72;;;11.30;80.40;;;;;;5102749;28;20032;-45
2020/12/21 00:36:56;;;;;;;2.67;2.47;;;11.30;80.60;;;;;;5102894;28;20090;-45
2020/12/21 00:39:22;;;;;;;2.70;2.15;;;11.30;80.40;;;;;;5102878;28;20727;-46
2020/12/21 00:41:49;;;;;;;2.63;2.38;;;11.30;80.40;;;;;;5102460;28;20077;-45
2020/12/21 00:44:16;;;;;;;3.87;3.10;;;11.30;80.60;;;;;;5103084;28;20024;-45
2020/12/21 00:46:42;;;;;;;2.90;2.60;;;11.30;80.70;;;;;;5102924;28;20088;-45
2020/12/21 00:49:08;;;;;;;2.75;2.40;;;11.30;80.60;;;;;;5084738;28;20073;-45
2020/12/21 00:51:35;;;;;;;3.38;2.97;;;11.30;80.60;;;;;;5102563;28;20024;-45
2020/12/21 00:54:01;;;;;;;2.25;1.80;;;11.30;80.60;;;;;;5102586;28;20032;-45
2020/12/21 00:56:27;;;;;;;4.40;2.53;;;11.30;80.50;;;;;;5102897;28;20449;-45
2020/12/21 00:58:53;;;;;;;3.45;2.78;;;11.30;80.60;;;;;;5102542;28;20077;-45
2020/12/21 01:01:28;;;;;;;2.77;2.40;;;11.30;81.00;;;;;;5102653;28;20016;-45
2020/12/21 01:03:58;;;;;;;4.03;2.88;;;11.30;80.80;;;;;;5102422;28;20263;-45
2020/12/21 01:06:24;;;;;;;2.90;2.50;;;11.30;80.70;;;;;;5102740;28;20105;-46
2020/12/21 01:08:50;;;;;;;2.90;2.60;;;11.30;81.20;;;;;;5102601;28;20050;-45
2020/12/21 01:11:17;;;;;;;2.63;2.38;;;11.30;81.20;;;;;;5102528;28;20108;-45
2020/12/21 01:13:43;;;;;;;3.00;2.70;;;11.30;80.70;;;;;;5088144;28;20028;-45
2020/12/21 01:16:10;;;;;;;2.58;2.38;;;11.20;80.60;;;;;;5088495;28;20132;-45
2020/12/21 01:18:36;;;;;;;3.30;2.07;;;11.30;80.90;;;;;;5106397;28;20042;-45
2020/12/21 01:21:03;;;;;;;3.42;2.92;;;11.20;80.90;;;;;;5106761;28;20397;-45
2020/12/21 01:23:29;;;;;;;4.53;2.60;;;11.20;80.90;;;;;;5106301;28;20034;-45
2020/12/21 01:25:55;;;;;;;2.95;2.55;;;11.20;80.90;;;;;;5106575;28;20050;-45
2020/12/21 01:28:21;;;;;;;4.00;2.80;;;11.20;81.10;;;;;;5106526;28;20091;-45
2020/12/21 01:30:49;;;;;;;3.15;2.55;;;11.20;80.70;;;;;;5106041;28;20024;-45
2020/12/21 01:33:15;;;;;;;3.00;2.53;;;11.20;80.70;;;;;;5105539;28;20040;-46
2020/12/21 01:35:41;;;;;;;3.55;2.47;;;11.20;80.90;;;;;;5106181;28;20053;-45
2020/12/21 01:38:07;;;;;;;2.65;2.28;;;11.20;80.70;;;;;;5106121;28;20027;-45
2020/12/21 01:40:33;;;;;;;4.10;2.72;;;11.20;80.70;;;;;;5105893;28;20032;-45
2020/12/21 01:43:00;;;;;;;3.00;2.38;;;11.20;80.30;;;;;;5105855;28;20057;-45
2020/12/21 01:45:26;;;;;;;2.72;2.45;;;11.20;80.40;;;;;;5106094;28;20046;-45
2020/12/21 01:47:52;;;;;;;4.15;2.70;;;11.20;80.60;;;;;;5105982;28;20062;-45
2020/12/21 01:50:18;;;;;;;3.38;2.80;;;11.20;80.30;;;;;;5087681;28;20073;-45
2020/12/21 01:52:44;;;;;;;3.67;2.63;;;11.20;80.90;;;;;;5087437;28;20532;-45
2020/12/21 01:55:11;;;;;;;3.22;2.67;;;11.20;80.00;;;;;;5105868;28;20097;-45
2020/12/21 01:57:39;;;;;;;3.88;3.00;;;11.20;79.90;;;;;;5105899;28;20768;-45
2020/12/21 02:00:06;;;;;;;2.90;2.50;;;11.20;79.90;;;;;;5105857;28;20016;-45
2020/12/21 02:02:32;;;;;;;3.35;2.92;;;11.20;79.90;;;;;;5087660;28;20024;-45
2020/12/21 02:04:58;;;;;;;2.83;1.92;;;11.20;79.90;;;;;;5087423;28;20035;-45
2020/12/21 02:07:25;;;;;;;2.78;2.58;;;11.20;79.80;;;;;;5087159;28;20103;-45
2020/12/21 02:09:51;;;;;;;3.15;2.85;;;11.20;79.90;;;;;;5104168;28;20035;-45
2020/12/21 02:12:17;;;;;;;3.17;2.65;;;11.10;79.80;;;;;;5105577;28;20054;-45
2020/12/21 02:14:43;;;;;;;2.90;2.60;;;11.10;79.80;;;;;;5105247;28;20024;-45
2020/12/21 02:17:09;;;;;;;3.25;2.45;;;11.10;79.80;;;;;;5105491;28;20038;-45
2020/12/21 02:19:36;;;;;;;3.15;2.72;;;11.10;79.80;;;;;;5105291;28;20048;-45
2020/12/21 02:22:02;;;;;;;3.17;2.70;;;11.10;79.80;;;;;;5105508;28;20070;-45
2020/12/21 02:24:28;;;;;;;3.33;2.70;;;11.10;79.80;;;;;;5104799;28;20026;-44
2020/12/21 02:26:54;;;;;;;3.20;2.63;;;11.10;80.50;;;;;;5105369;28;20887;-45
2020/12/21 02:29:20;;;;;;;3.67;2.75;;;11.10;79.80;;;;;;5104914;28;20026;-45
2020/12/21 02:31:46;;;;;;;4.05;2.97;;;11.10;79.80;;;;;;5104965;28;20122;-45
2020/12/21 02:34:18;;;;;;;2.47;2.13;;;11.10;79.80;;;;;;5103958;28;20024;-45
2020/12/21 02:36:45;;;;;;;3.55;2.40;;;11.10;79.80;;;;;;5105138;28;20025;-45
2020/12/21 02:39:11;;;;;;;3.15;2.72;;;11.10;79.80;;;;;;5105224;28;20092;-45
2020/12/21 02:41:37;;;;;;;2.83;2.50;;;11.10;79.80;;;;;;5104987;28;20507;-45
2020/12/21 02:44:03;;;;;;;2.85;2.55;;;11.10;79.90;;;;;;5104829;28;20040;-45
2020/12/21 02:46:29;;;;;;;2.83;2.50;;;11.00;79.70;;;;;;5104710;28;20105;-45
2020/12/21 02:48:55;;;;;;;3.95;2.67;;;11.00;79.80;;;;;;5104916;28;20032;-45
2020/12/21 02:51:22;;;;;;;3.28;2.90;;;11.00;79.70;;;;;;5104855;28;20135;-45
2020/12/21 02:53:48;;;;;;;4.65;2.97;;;11.00;79.80;;;;;;5104258;28;20032;-45
2020/12/21 02:56:14;;;;;;;3.30;2.75;;;11.00;79.70;;;;;;5104763;28;20028;-46
2020/12/21 02:58:40;;;;;;;2.38;2.17;;;11.00;79.70;;;;;;5104840;28;20024;-45
2020/12/21 03:01:06;;;;;;;3.03;2.55;;;11.00;79.70;;;;;;5104578;28;20052;-46
2020/12/21 03:03:33;;;;;;;3.20;2.70;;;11.00;79.80;;;;;;5096713;28;20023;-45
2020/12/21 03:05:59;;;;;;;3.28;2.70;;;11.00;79.70;;;;;;5104355;28;20095;-46
2020/12/21 03:08:25;;;;;;;2.60;2.40;;;11.00;79.80;;;;;;5104449;28;20164;-45
2020/12/21 03:10:51;;;;;;;3.22;2.47;;;11.00;79.70;;;;;;5104243;28;20039;-45
2020/12/21 03:13:17;;;;;;;3.92;2.80;;;11.00;79.70;;;;;;5104387;28;20111;-46
2020/12/21 03:15:43;;;;;;;3.95;2.90;;;11.00;79.80;;;;;;5104061;28;20508;-45
2020/12/21 03:18:10;;;;;;;3.08;2.40;;;10.90;79.70;;;;;;5086273;28;20086;-45
2020/12/21 03:20:36;;;;;;;2.83;2.53;;;10.90;79.70;;;;;;5085649;28;20044;-45
2020/12/21 03:23:02;;;;;;;2.92;2.50;;;10.90;79.70;;;;;;5104294;28;20012;-45
2020/12/21 03:25:28;;;;;;;3.47;2.80;;;10.90;79.70;;;;;;5103830;28;20095;-45
2020/12/21 03:27:54;;;;;;;3.08;2.70;;;10.90;79.80;;;;;;5104092;28;20031;-45
2020/12/21 03:30:20;;;;;;;2.95;2.60;;;10.90;79.70;;;;;;5103813;28;20032;-45
2020/12/21 03:32:46;;;;;;;3.30;2.63;;;10.90;79.80;;;;;;5085744;28;20032;-45
2020/12/21 03:35:13;;;;;;;3.13;2.65;;;10.90;79.80;;;;;;5103224;28;20092;-46
2020/12/21 03:37:39;;;;;;;3.70;2.72;;;10.90;79.80;;;;;;5103717;28;20051;-45
2020/12/21 03:40:06;;;;;;;3.13;2.67;;;10.90;79.70;;;;;;5103872;28;20089;-45
2020/12/21 03:42:32;;;;;;;2.70;2.50;;;10.90;79.70;;;;;;5103647;28;20016;-45
2020/12/21 03:44:58;;;;;;;4.15;2.85;;;10.90;79.80;;;;;;5103331;28;20047;-45
2020/12/21 03:47:25;;;;;;;3.17;2.75;;;10.90;79.80;;;;;;5103692;28;20043;-46
2020/12/21 03:49:51;;;;;;;3.13;2.60;;;10.90;79.80;;;;;;5103263;28;20038;-45
2020/12/21 03:52:17;;;;;;;3.00;2.70;;;10.80;79.70;;;;;;5103586;28;20032;-45
2020/12/21 03:54:43;;;;;;;3.00;2.70;;;10.80;79.80;;;;;;5103412;28;20073;-46
2020/12/21 03:57:09;;;;;;;3.17;2.53;;;10.80;79.80;;;;;;5103560;28;20496;-45
2020/12/21 03:59:35;;;;;;;3.38;2.75;;;10.80;79.70;;;;;;5103334;28;20027;-45
2020/12/21 04:02:02;;;;;;;3.45;2.88;;;10.80;79.80;;;;;;5101280;28;20508;-44
2020/12/21 04:04:28;;;;;;;3.30;2.83;;;10.80;79.80;;;;;;5097719;28;20052;-45
2020/12/21 04:06:54;;;;;;;3.70;2.70;;;10.80;79.80;;;;;;5092703;28;20083;-44
2020/12/21 04:09:20;;;;;;;4.50;2.70;;;10.80;79.70;;;;;;5083085;28;20034;-45
2020/12/21 04:11:47;;;;;;;3.20;2.70;;;10.80;79.80;;;;;;5082855;28;20051;-45
2020/12/21 04:14:13;;;;;;;3.33;2.80;;;10.80;79.90;;;;;;5083071;28;20544;-46
2020/12/21 04:16:39;;;;;;;3.67;2.65;;;10.80;79.80;;;;;;5082679;28;20084;-45
2020/12/21 04:19:05;;;;;;;4.07;3.00;;;10.70;79.80;;;;;;5088184;28;20048;-45
2020/12/21 04:21:31;;;;;;;3.63;2.07;;;10.80;79.80;;;;;;5103199;28;20077;-45
2020/12/21 04:23:58;;;;;;;3.28;2.50;;;10.80;79.90;;;;;;5102928;28;20035;-45
2020/12/21 04:26:24;;;;;;;3.60;2.90;;;10.70;79.80;;;;;;5102826;28;20904;-45
2020/12/21 04:28:50;;;;;;;3.25;2.75;;;10.70;79.80;;;;;;5103119;28;20043;-45
2020/12/21 04:31:16;;;;;;;2.88;2.55;;;10.70;79.80;;;;;;5102591;28;20503;-44
2020/12/21 04:33:42;;;;;;;3.25;2.75;;;10.70;79.80;;;;;;5102750;28;20032;-45
2020/12/21 04:36:10;;;;;;;4.35;3.00;;;10.70;79.80;;;;;;5102691;28;20024;-44
2020/12/21 04:38:37;;;;;;;4.28;3.17;;;10.70;79.80;;;;;;5102967;28;20520;-45
2020/12/21 04:41:04;;;;;;;3.20;2.88;;;10.70;79.80;;;;;;5102462;28;20036;-45
2020/12/21 04:43:31;;;;;;;3.72;3.05;;;10.70;79.70;;;;;;5102693;28;20028;-46
2020/12/21 04:45:58;;;;;;;3.88;2.90;;;10.70;79.80;;;;;;5084407;28;20054;-45
2020/12/21 04:48:24;;;;;;;3.65;2.90;;;10.60;79.80;;;;;;5101402;28;20032;-45
2020/12/21 04:50:54;;;;;;;3.92;3.17;;;10.60;79.80;;;;;;5102597;28;20028;-45
2020/12/21 04:53:23;;;;;;;3.00;2.63;;;10.60;79.80;;;;;;5102731;28;20034;-46
2020/12/21 04:55:50;;;;;;;3.60;2.65;;;10.60;79.80;;;;;;5102324;28;20028;-45
2020/12/21 04:58:16;;;;;;;3.95;3.40;;;10.60;79.80;;;;;;5102530;28;20032;-45
2020/12/21 05:00:42;;;;;;;3.42;2.83;;;10.60;79.80;;;;;;5102695;28;20021;-47
2020/12/21 05:03:09;;;;;;;3.00;2.50;;;10.60;79.80;;;;;;5102480;28;20024;-45
2020/12/21 05:05:41;;;;;;;3.22;2.80;;;10.60;79.80;;;;;;5102210;28;20046;-46
2020/12/21 05:08:15;;;;;;;3.63;2.80;;;10.60;79.90;;;;;;5082256;28;20092;-45
2020/12/21 05:10:45;;;;;;;3.40;2.92;;;10.50;79.70;;;;;;5082242;28;20020;-45
2020/12/21 05:13:12;;;;;;;2.90;2.58;;;10.60;79.80;;;;;;5082256;28;20067;-45
2020/12/21 05:15:39;;;;;;;3.58;2.65;;;10.50;79.70;;;;;;5081860;28;20031;-45
2020/12/21 05:18:09;;;;;;;3.13;2.75;;;10.50;79.70;;;;;;5082112;28;20051;-45
2020/12/21 05:20:36;;;;;;;3.28;2.75;;;10.50;79.80;;;;;;5098158;28;20096;-45
2020/12/21 05:23:06;;;;;;;3.35;2.58;;;10.50;79.80;;;;;;5102555;28;20031;-45
2020/12/21 05:25:33;;;;;;;3.47;2.78;;;10.50;79.80;;;;;;5102169;28;20070;-45
2020/12/21 05:28:12;;;;;;;3.33;2.90;;;10.50;79.80;;;;;;5102151;28;20465;-44
2020/12/21 05:30:50;;;;;;;5.43;2.88;;;10.40;79.70;;;;;;5083823;28;20036;-44
2020/12/21 05:33:17;;;;;;;4.32;2.90;;;10.40;79.80;;;;;;5101757;28;20028;-45
2020/12/21 05:35:43;;;;;;;3.47;2.67;;;10.40;79.80;;;;;;5102423;28;20362;-45
2020/12/21 05:38:25;;;;;;;4.13;2.88;;;10.40;79.80;;;;;;5083686;28;20032;-45
2020/12/21 05:40:51;;;;;;;4.22;2.95;;;10.40;79.80;;;;;;5102058;28;20050;-45
2020/12/21 05:43:30;;;;;;;3.40;2.90;;;10.40;79.80;;;;;;5102164;28;20111;-45
2020/12/21 05:46:23;;;;;;;3.55;3.20;;;10.40;79.80;;;;;;5101866;28;20092;-45
2020/12/21 05:48:55;;;;;;;3.22;2.88;;;10.40;79.80;;;;;;5101838;28;20051;-45
2020/12/21 05:51:26;;;;;;;4.35;3.00;;;10.30;79.80;;;;;;5101639;28;20032;-45
2020/12/21 05:53:56;;;;;;;5.47;3.28;;;10.30;79.80;;;;;;5102136;28;20079;-45
2020/12/21 05:56:23;;;;;;;4.80;2.90;;;10.30;79.80;;;;;;5101722;28;20083;-45
2020/12/21 05:58:49;;;;;;;3.60;2.85;;;10.30;79.80;;;;;;5103940;28;20460;-45
2020/12/21 06:01:16;;;;;;;3.85;3.20;;;10.30;79.80;;;;;;5087427;28;20032;-45
2020/12/21 06:03:46;;;;;;;3.28;2.42;;;10.30;79.90;;;;;;5079980;28;20020;-45
2020/12/21 06:06:22;;;;;;;3.50;3.08;;;10.30;79.90;;;;;;5105356;28;20032;-45
2020/12/21 06:08:52;;;;;;;3.88;2.90;;;10.30;79.80;;;;;;5105765;28;20424;-45
2020/12/21 06:11:23;;;;;;;4.22;3.50;;;10.30;79.80;;;;;;5105010;28;20049;-45
2020/12/21 06:14:00;;;;;;;3.33;2.75;;;10.30;79.80;;;;;;5105561;28;20101;-45
2020/12/21 06:16:28;;;;;;;4.05;3.25;;;10.20;79.80;;;;;;5087134;28;20039;-45
2020/12/21 06:19:04;;;;;;;4.97;3.35;;;10.30;79.90;;;;;;5105355;28;20035;-45
2020/12/21 06:21:53;;;;;;;5.40;2.95;;;10.20;79.70;;;;;;5105360;28;20590;-43
2020/12/21 06:24:19;;;;;;;3.72;3.10;;;10.20;79.80;;;;;;5105063;28;20036;-45
2020/12/21 06:26:46;;;;;;;3.80;2.97;;;10.20;79.80;;;;;;5104994;28;20129;-45
2020/12/21 06:29:19;;;;;;;4.47;2.90;;;10.20;79.80;;;;;;5105263;28;20060;-45
2020/12/21 06:32:00;;;;;;;4.50;3.10;;;10.20;79.80;;;;;;5104870;28;20040;-46
2020/12/21 06:34:29;;;;;;;3.80;3.15;;;10.20;79.70;;;;;;5099460;28;20380;-45
2020/12/21 06:37:06;;;;;;;3.70;3.00;;;10.10;79.70;;;;;;5104617;28;20095;-46
2020/12/21 06:39:32;;;;;;;3.38;3.08;;;10.10;79.80;;;;;;5104703;28;20039;-45
2020/12/21 06:42:13;;;;;;;5.15;3.28;;;10.10;79.70;;;;;;5103665;28;20028;-44
2020/12/21 06:44:40;;;;;;;4.03;3.35;;;10.10;79.80;;;;;;5104929;28;20514;-45
2020/12/21 06:47:10;;;;;;;4.88;3.20;;;10.10;79.80;;;;;;5086276;28;20032;-45
2020/12/21 06:49:37;;;;;;;4.50;3.38;;;10.10;79.80;;;;;;5104575;28;20089;-45
2020/12/21 06:52:03;;;;;;;4.53;3.25;;;10.10;79.90;;;;;;5104678;28;20028;-45
2020/12/21 06:54:29;;;;;;;3.90;3.08;;;10.10;79.80;;;;;;5104720;28;20066;-45
2020/12/21 06:56:55;;;;;;;3.80;3.25;;;10.10;79.90;;;;;;5104128;28;20032;-46
2020/12/21 06:59:26;;;;;;;3.92;3.53;;;10.10;79.90;;;;;;5104603;28;20028;-45
2020/12/21 07:01:53;;;;;;;3.42;3.13;;;10.00;79.80;;;;;;5104428;28;20130;-45
2020/12/21 07:04:30;;;;;;;4.47;3.00;;;10.00;79.80;;;;;;5103997;28;20028;-45
2020/12/21 07:07:05;;;;;;;3.92;3.33;;;10.00;79.80;;;;;;5070148;28;20535;-44
2020/12/21 07:09:34;;;;;;;4.38;3.30;;;10.00;79.80;;;;;;5084977;28;20380;-45
2020/12/21 07:12:08;;;;;;;4.13;3.63;;;10.00;79.80;;;;;;5104244;28;20040;-44
2020/12/21 07:14:40;;;;;;;3.75;3.13;;;10.00;79.80;;;;;;5104262;28;20032;-45
2020/12/21 07:17:10;;;;;;;5.40;3.30;;;10.00;79.80;;;;;;5103761;28;20042;-45
2020/12/21 07:19:39;;;;;;;5.25;3.53;;;9.90;79.80;;;;;;5120493;27;20023;-46
2020/12/21 07:22:06;;;;;;;3.42;2.95;;;9.90;79.80;;;;;;5127009;27;20035;-49
2020/12/21 07:24:32;;;;;;;3.08;2.63;;;9.90;79.80;;;;;;5144959;27;20023;-45
2020/12/21 07:26:58;;;;;;;4.07;3.25;;;9.90;79.80;;;;;;5144823;27;20031;-45
2020/12/21 07:29:31;;;;;;;3.88;3.13;;;9.90;79.80;;;;;;5145133;27;20031;-45
2020/12/21 07:31:58;;;;;;;4.47;3.63;;;9.90;79.80;;;;;;5143160;27;20065;-45
2020/12/21 07:34:24;;;;;;;3.92;3.47;;;9.90;79.80;;;;;;5138489;27;20087;-45
2020/12/21 07:36:50;;;;;;;3.85;3.45;;;9.90;79.80;;;;;;5140324;27;20030;-44
2020/12/21 07:39:17;;;;;;;4.75;3.10;;;9.80;79.80;;;;;;5144656;27;20019;-45
2020/12/21 07:41:53;;;;;;;4.78;3.58;;;9.80;79.80;;;;;;5145064;27;20035;-45
2020/12/21 07:44:29;;;;;;;3.90;3.13;;;9.80;79.80;;;;;;5127742;27;20030;-45
2020/12/21 07:46:56;;;;;;;3.88;3.38;;;9.80;79.80;;;;;;5126911;27;20031;-45
2020/12/21 07:49:22;;;;;;;4.57;3.55;;;9.80;79.80;;;;;;5116622;28;20027;-45
2020/12/21 07:51:48;;;;;;;4.70;3.47;;;9.80;79.90;;;;;;5085284;28;20848;-45
2020/12/21 07:54:14;;;;;;;5.22;3.78;;;9.80;79.80;;;;;;5085553;28;20024;-45
2020/12/21 07:56:43;;;;;;;3.78;3.20;;;9.80;79.90;;;;;;5112510;27;20015;-45
2020/12/21 07:59:17;;;;;;;4.47;3.58;;;9.80;79.90;;;;;;5123869;28;20023;-45
2020/12/21 08:01:43;;;;;;;4.38;3.45;;;9.80;79.90;;;;;;5123822;28;20075;-46
2020/12/21 08:04:17;;;;;;;3.95;3.53;;;9.80;79.90;;;;;;5143291;27;20031;-45
2020/12/21 08:06:46;;;;;;;4.18;3.45;;;9.70;79.80;;;;;;5116555;28;20202;-46
2020/12/21 08:09:12;;;;;;;4.07;3.22;;;9.70;79.80;;;;;;5123715;28;20682;-44
2020/12/21 08:11:39;;;;;;;4.67;3.67;;;9.70;79.80;;;;;;5123469;28;20742;-45
2020/12/21 08:14:07;;;;;;;5.53;3.53;;;9.70;79.80;;;;;;5105192;28;20091;-44
2020/12/21 08:16:33;;;;;;;4.32;3.55;;;9.70;79.80;;;;;;5123316;28;20042;-45
2020/12/21 08:19:00;;;;;;;3.80;3.30;;;9.70;79.90;;;;;;5126352;27;20099;-46
2020/12/21 08:21:30;;;;;;;5.88;3.40;;;9.70;79.80;;;;;;5125228;27;20043;-45
2020/12/21 08:23:57;;;;;;;5.00;3.60;;;9.70;79.80;;;;;;5144154;27;20091;-45
2020/12/21 08:26:24;;;;;;;6.60;3.92;;;9.60;79.70;;;;;;5143789;27;20023;-46
2020/12/21 08:28:50;;;;;;;4.32;3.60;;;9.60;79.80;;;;;;5125505;27;20031;-45
2020/12/21 08:31:20;;;;;;;4.28;3.38;;;9.60;79.80;;;;;;5143755;27;20031;-45
2020/12/21 08:34:06;;;;;;;4.60;3.28;;;9.60;79.80;;;;;;5130173;27;20044;-45
2020/12/21 08:36:36;;;;;;;4.85;3.80;;;9.60;79.80;;;;;;5105425;28;20540;-45
2020/12/21 08:39:05;;;;;;;4.03;3.28;;;9.60;79.90;;;;;;5123361;28;20053;-45
2020/12/21 08:41:48;;;;;;;3.95;3.38;;;9.60;79.90;;;;;;5123142;28;20027;-44
2020/12/21 08:44:27;;;;;;;5.05;3.42;;;9.50;79.80;;;;;;5122964;28;20087;-45
2020/12/21 08:46:55;;;;;;;4.10;3.55;;;9.60;79.90;;;;;;5102599;28;20169;-45
2020/12/21 08:49:22;;;;;;;4.70;3.60;;;9.50;79.90;;;;;;5114410;27;20526;-44
2020/12/21 08:51:48;;;;;;;3.63;3.15;;;9.50;79.80;;;;;;5143649;27;20035;-45
2020/12/21 08:54:14;;;;;;;3.25;2.28;;;9.50;79.90;;;;;;5143753;27;20035;-45
2020/12/21 08:56:46;;;;;;;3.95;3.15;;;9.50;79.90;;;;;;5143364;28;20031;-44
2020/12/21 08:59:12;;;;;;;4.22;3.35;;;9.50;79.80;;;;;;5143358;28;20023;-46
2020/12/21 09:01:44;;;;;;;4.20;3.35;;;9.40;79.80;;;;;;5141582;28;20046;-45
2020/12/21 09:04:10;;;;;;;5.70;3.90;;;9.50;79.90;;;;;;5135239;28;20026;-45
2020/12/21 09:06:37;;;;;;;4.30;3.57;;;9.40;79.80;;;;;;5135143;28;20115;-45
2020/12/21 09:09:04;;;;;;;4.78;3.40;;;9.40;79.80;;;;;;5122745;28;20028;-45
2020/12/21 09:11:30;;;;;;;4.97;3.88;;;9.40;79.80;;;;;;5122772;28;20027;-45
2020/12/21 09:13:56;;;;;;;3.88;3.40;;;9.40;79.80;;;;;;5123112;28;20034;-45
2020/12/21 09:16:26;;;;;;;4.25;3.65;;;9.40;79.90;;;;;;5122877;28;20052;-45
2020/12/21 09:18:52;;;;;;;4.38;3.22;;;9.40;79.90;;;;;;5124415;28;20032;-45
2020/12/21 09:21:29;;;;;;;5.10;3.25;;;9.40;79.90;;;;;;5143333;28;20458;-44
2020/12/21 09:24:00;;;;;;;5.05;3.67;;;9.40;79.90;;;;;;5143334;28;20023;-44
2020/12/21 09:26:26;;;;;;;4.35;3.33;;;9.40;79.90;;;;;;5143316;28;20028;-45
2020/12/21 09:28:52;;;;;;;4.93;3.20;;;9.30;79.90;;;;;;5134827;28;20040;-45
2020/12/21 09:31:21;;;;;;;4.70;3.60;;;9.30;79.90;;;;;;5122453;28;20074;-45
2020/12/21 09:33:48;;;;;;;4.57;3.65;;;9.30;79.90;;;;;;5133378;27;20027;-45
2020/12/21 09:36:14;;;;;;;3.97;3.58;;;9.30;79.90;;;;;;5142234;27;20034;-44
2020/12/21 09:38:41;;;;;;;4.90;3.78;;;9.30;79.90;;;;;;5126312;28;20027;-45
2020/12/21 09:41:07;;;;;;;4.72;3.70;;;9.30;79.90;;;;;;5126352;28;20031;-44
2020/12/21 09:43:33;;;;;;;4.50;3.60;;;9.30;79.90;;;;;;5126661;28;20039;-44
2020/12/21 09:46:00;;;;;;;5.63;4.18;;;9.30;79.90;;;;;;5126459;27;20028;-45
2020/12/21 09:48:26;;;;;;;5.43;3.50;;;9.30;79.90;;;;;;5126121;28;20031;-45
2020/12/21 09:50:52;;;;;;;3.45;2.85;;;9.20;79.90;;;;;;5145502;27;20479;-45
2020/12/21 09:53:18;;;;;;;4.05;3.60;;;9.20;79.90;;;;;;5128498;27;20059;-44
2020/12/21 09:55:45;;;;;;;4.05;3.30;;;9.20;79.90;;;;;;5146823;27;20024;-45
2020/12/21 09:58:11;;;;;;;3.80;3.40;;;9.20;79.90;;;;;;5146674;27;20051;-45
2020/12/21 10:00:37;;;;;;;4.63;3.60;;;9.20;79.90;;;;;;5146939;27;20029;-44
2020/12/21 10:03:03;;;;;;;5.15;4.20;;;9.20;80.00;;;;;;5138765;27;20060;-45
2020/12/21 10:05:29;;;;;;;4.50;3.40;;;9.20;80.00;;;;;;5146795;27;20037;-44
2020/12/21 10:07:56;;;;;;;4.85;3.60;;;9.10;79.90;;;;;;5126855;27;20032;-45
2020/12/21 10:10:22;;;;;;;4.70;3.83;;;9.10;79.90;;;;;;5106856;28;20567;-45
2020/12/21 10:12:49;;;;;;;5.32;4.20;;;9.10;79.90;;;;;;5125886;28;20071;-45
2020/12/21 10:15:15;;;;;;;4.60;3.67;;;9.10;79.90;;;;;;5126041;28;20027;-44
2020/12/21 10:17:41;;;;;;;4.88;3.95;;;9.10;80.00;;;;;;5125828;28;20110;-45
2020/12/21 10:20:08;;;;;;;4.65;3.47;;;9.10;80.00;;;;;;5138023;27;20043;-44
2020/12/21 10:22:34;;;;;;;3.58;2.95;;;9.10;80.00;;;;;;5146280;27;20028;-44
2020/12/21 10:25:00;;;;;;;4.20;3.20;;;9.10;80.00;;;;;;5127971;27;20023;-45
2020/12/21 10:27:29;;;;;;;5.03;3.58;;;9.10;80.00;;;;;;5146339;27;20027;-44
2020/12/21 10:29:55;;;;;;;4.57;3.65;;;9.00;79.90;;;;;;5127685;27;20023;-45
2020/12/21 10:32:21;;;;;;;4.47;3.80;;;9.00;79.90;;;;;;5144923;27;20038;-45
2020/12/21 10:34:47;;;;;;;4.00;3.47;;;9.00;80.00;;;;;;5128247;27;20031;-45
2020/12/21 10:37:13;;;;;;;4.20;3.58;;;9.00;80.00;;;;;;5125495;28;20024;-44
2020/12/21 10:39:39;;;;;;;4.57;3.47;;;9.00;80.00;;;;;;5125289;28;20047;-44
2020/12/21 10:42:06;;;;;;;4.50;3.72;;;9.00;80.00;;;;;;5125536;27;20027;-45
2020/12/21 10:44:32;;;;;;;4.60;3.65;;;9.00;80.00;;;;;;5107287;28;20118;-45
2020/12/21 10:46:59;;;;;;;4.20;3.80;;;9.00;80.70;;;;;;5125169;28;20488;-45
2020/12/21 10:49:25;;;;;;;3.35;2.83;;;9.00;80.00;;;;;;5131576;27;20027;-44
2020/12/21 10:51:51;;;;;;;5.50;3.85;;;8.90;79.90;;;;;;5145940;27;20088;-44
2020/12/21 10:54:18;;;;;;;5.85;4.20;;;8.90;80.00;;;;;;5145960;27;20037;-44
2020/12/21 10:56:44;;;;;;;5.82;3.90;;;8.90;80.00;;;;;;5145771;27;20023;-45
2020/12/21 10:59:10;;;;;;;4.32;3.45;;;8.90;80.00;;;;;;5145409;27;20034;-45
2020/12/21 11:01:36;;;;;;;4.47;3.53;;;8.90;79.90;;;;;;5143722;27;20030;-45
2020/12/21 11:04:02;;;;;;;3.90;3.35;;;8.90;80.00;;;;;;5126354;28;20119;-44
2020/12/21 11:06:28;;;;;;;5.45;4.00;;;8.90;80.00;;;;;;5117842;28;20102;-44
2020/12/21 11:08:55;;;;;;;5.70;4.05;;;8.90;80.10;;;;;;5104194;28;20039;-45
2020/12/21 11:11:27;;;;;;;4.38;3.65;;;8.90;80.00;;;;;;5104403;28;20104;-45
2020/12/21 11:13:54;;;;;;;6.03;3.90;;;8.80;79.90;;;;;;5104557;28;20024;-45
2020/12/21 11:16:21;;;;;;;4.68;3.50;;;8.80;79.90;;;;;;5104506;28;20040;-44
2020/12/21 11:18:47;;;;;;;4.93;3.78;;;8.80;80.00;;;;;;5106262;27;20047;-44
2020/12/21 11:21:14;;;;;;;4.90;4.27;;;8.80;80.00;;;;;;5140464;27;20040;-46
2020/12/21 11:23:43;;;;;;;4.95;3.95;;;8.80;80.00;;;;;;5124677;28;20031;-44
2020/12/21 11:26:10;;;;;;;4.60;3.40;;;8.80;80.00;;;;;;5124648;28;20570;-45
2020/12/21 11:28:36;;;;;;;4.75;4.18;;;8.80;80.00;;;;;;5089499;28;20108;-44
2020/12/21 11:31:03;;;;;;;4.72;3.60;;;8.80;80.10;;;;;;5124283;28;20054;-45
2020/12/21 11:33:29;;;;;;;4.28;3.40;;;8.80;80.10;;;;;;5120223;27;20054;-44
2020/12/21 11:35:56;;;;;;;4.85;3.78;;;8.70;80.00;;;;;;5142440;27;20046;-44
2020/12/21 11:38:22;;;;;;;5.25;3.72;;;8.70;80.00;;;;;;5124348;28;20099;-45
2020/12/21 11:40:49;;;;;;;4.63;3.80;;;8.70;80.00;;;;;;5105934;28;20107;-44
2020/12/21 11:43:15;;;;;;;5.57;4.18;;;8.70;80.00;;;;;;5124486;28;20027;-45
2020/12/21 11:45:42;;;;;;;4.43;3.33;;;8.70;80.00;;;;;;5124328;28;20042;-45
2020/12/21 11:48:08;;;;;;;4.85;3.60;;;8.70;80.00;;;;;;5123987;28;20392;-44
2020/12/21 11:50:34;;;;;;;4.20;3.72;;;8.70;80.10;;;;;;5127042;27;20036;-45
2020/12/21 11:53:00;;;;;;;5.38;3.95;;;8.70;80.10;;;;;;5124286;28;20044;-44
2020/12/21 11:55:27;;;;;;;4.03;3.33;;;8.70;80.00;;;;;;5123633;28;20020;-44
2020/12/21 11:57:53;;;;;;;4.50;3.60;;;8.70;80.10;;;;;;5123994;28;20038;-45
2020/12/21 12:00:19;;;;;;;4.93;3.75;;;8.70;80.10;;;;;;5123819;28;20034;-44
2020/12/21 12:02:45;;;;;;;5.10;3.78;;;8.70;80.10;;;;;;5123664;28;20544;-46
2020/12/21 12:05:12;;;;;;;4.03;3.05;;;8.70;80.10;;;;;;5124094;28;20024;-44
2020/12/21 12:07:38;;;;;;;4.78;4.10;;;8.70;80.10;;;;;;5107019;28;20111;-44
2020/12/21 12:10:05;;;;;;;4.40;3.88;;;8.70;80.10;;;;;;5103290;28;20020;-45
2020/12/21 12:12:31;;;;;;;4.55;3.70;;;8.70;80.10;;;;;;5103433;28;20024;-45
2020/12/21 12:14:57;;;;;;;4.90;3.97;;;8.70;80.20;;;;;;5103260;28;20024;-45
2020/12/21 12:17:23;;;;;;;6.18;3.97;;;8.70;80.10;;;;;;5103344;28;20035;-44
2020/12/21 12:19:50;;;;;;;4.65;3.63;;;8.60;80.10;;;;;;5122877;27;20096;-45
2020/12/21 12:22:16;;;;;;;6.43;3.72;;;8.60;80.20;;;;;;5144381;27;20054;-47
2020/12/21 12:24:43;;;;;;;5.13;3.70;;;8.60;80.10;;;;;;5108243;28;20084;-44
2020/12/21 12:27:09;;;;;;;5.57;3.63;;;8.60;80.10;;;;;;5103117;28;20028;-44
2020/12/21 12:29:35;;;;;;;3.55;3.17;;;8.60;80.10;;;;;;5101874;28;20016;-45
2020/12/21 12:32:01;;;;;;;3.83;3.30;;;8.60;80.10;;;;;;5106876;28;20491;-44
2020/12/21 12:34:27;;;;;;;5.85;4.00;;;8.60;80.10;;;;;;5144084;27;20027;-45
2020/12/21 12:36:53;;;;;;;4.80;4.05;;;8.60;80.20;;;;;;5114939;28;20154;-44
2020/12/21 12:39:19;;;;;;;4.93;3.88;;;8.60;80.20;;;;;;5123516;28;20035;-44
2020/12/21 12:41:46;;;;;;;4.68;3.78;;;8.60;80.20;;;;;;5122969;28;20023;-44
2020/12/21 12:44:12;;;;;;;4.95;4.00;;;8.60;80.20;;;;;;5123456;28;20048;-44
2020/12/21 12:46:38;;;;;;;3.92;3.08;;;8.60;80.20;;;;;;5123106;28;20027;-45
2020/12/21 12:49:06;;;;;;;4.07;3.35;;;8.60;80.20;;;;;;5126673;27;20027;-45
2020/12/21 12:51:33;;;;;;;5.20;3.85;;;8.60;80.20;;;;;;5143650;27;20035;-45